sensor_id;sensor_type;location;lat;lon;timestamp;temperature;humidity
12752;DHT22;6440;44.616;2.032;2022-08-03T00:00:37;21.90;93.50
12752;DHT22;6440;44.616;2.032;2022-08-03T00:03:03;21.90;93.80
12752;DHT22;6440;44.616;2.032;2022-08-03T00:05:32;21.80;94.00
12752;DHT22;6440;44.616;2.032;2022-08-03T00:08:01;21.80;94.10
12752;DHT22;6440;44.616;2.032;2022-08-03T00:10:29;21.70;94.30
12752;DHT22;6440;44.616;2.032;2022-08-03T00:12:58;21.70;94.30
12752;DHT22;6440;44.616;2.032;2022-08-03T00:15:27;21.70;94.30
12752;DHT22;6440;44.616;2.032;2022-08-03T00:17:56;21.70;94.30
12752;DHT22;6440;44.616;2.032;2022-08-03T00:20:25;21.70;94.30
12752;DHT22;6440;44.616;2.032;2022-08-03T00:22:54;21.60;94.40
12752;DHT22;6440;44.616;2.032;2022-08-03T00:25:23;21.60;94.50
12752;DHT22;6440;44.616;2.032;2022-08-03T00:27:52;21.60;94.70
12752;DHT22;6440;44.616;2.032;2022-08-03T00:30:21;21.60;94.70
12752;DHT22;6440;44.616;2.032;2022-08-03T00:32:50;21.60;94.60
12752;DHT22;6440;44.616;2.032;2022-08-03T00:35:19;21.60;94.70
12752;DHT22;6440;44.616;2.032;2022-08-03T00:37:48;21.50;94.80
12752;DHT22;6440;44.616;2.032;2022-08-03T00:40:16;21.50;94.90
12752;DHT22;6440;44.616;2.032;2022-08-03T00:42:47;21.50;94.90
12752;DHT22;6440;44.616;2.032;2022-08-03T00:45:15;21.40;95.00
12752;DHT22;6440;44.616;2.032;2022-08-03T00:47:43;21.30;95.40
12752;DHT22;6440;44.616;2.032;2022-08-03T00:50:11;21.20;96.00
12752;DHT22;6440;44.616;2.032;2022-08-03T00:52:39;21.10;96.30
12752;DHT22;6440;44.616;2.032;2022-08-03T00:55:08;21.10;96.40
12752;DHT22;6440;44.616;2.032;2022-08-03T00:57:36;21.00;96.60
12752;DHT22;6440;44.616;2.032;2022-08-03T01:00:06;21.00;96.70
12752;DHT22;6440;44.616;2.032;2022-08-03T01:02:35;21.00;96.80
12752;DHT22;6440;44.616;2.032;2022-08-03T01:05:04;21.00;96.90
12752;DHT22;6440;44.616;2.032;2022-08-03T01:07:43;21.00;96.90
12752;DHT22;6440;44.616;2.032;2022-08-03T01:10:24;21.00;97.00
12752;DHT22;6440;44.616;2.032;2022-08-03T01:12:58;21.00;96.90
12752;DHT22;6440;44.616;2.032;2022-08-03T01:15:42;21.00;97.00
12752;DHT22;6440;44.616;2.032;2022-08-03T01:18:16;20.90;97.10
12752;DHT22;6440;44.616;2.032;2022-08-03T01:20:47;20.90;97.20
12752;DHT22;6440;44.616;2.032;2022-08-03T01:26:20;20.80;97.40
12752;DHT22;6440;44.616;2.032;2022-08-03T01:30:07;20.80;97.60
12752;DHT22;6440;44.616;2.032;2022-08-03T01:31:50;20.80;97.60
12752;DHT22;6440;44.616;2.032;2022-08-03T01:34:16;20.70;97.60
12752;DHT22;6440;44.616;2.032;2022-08-03T01:36:47;20.70;97.70
12752;DHT22;6440;44.616;2.032;2022-08-03T01:39:12;20.70;97.70
12752;DHT22;6440;44.616;2.032;2022-08-03T01:41:52;20.70;97.70
12752;DHT22;6440;44.616;2.032;2022-08-03T01:44:18;20.70;97.70
12752;DHT22;6440;44.616;2.032;2022-08-03T01:46:46;20.70;97.80
12752;DHT22;6440;44.616;2.032;2022-08-03T01:49:14;20.60;97.80
12752;DHT22;6440;44.616;2.032;2022-08-03T01:51:42;20.60;98.10
12752;DHT22;6440;44.616;2.032;2022-08-03T01:54:10;20.50;98.30
12752;DHT22;6440;44.616;2.032;2022-08-03T01:56:38;20.50;98.40
12752;DHT22;6440;44.616;2.032;2022-08-03T01:59:06;20.50;98.60
12752;DHT22;6440;44.616;2.032;2022-08-03T02:01:35;20.40;98.60
12752;DHT22;6440;44.616;2.032;2022-08-03T02:04:02;20.30;98.90
12752;DHT22;6440;44.616;2.032;2022-08-03T02:06:31;20.30;99.20
12752;DHT22;6440;44.616;2.032;2022-08-03T02:08:59;20.20;99.50
12752;DHT22;6440;44.616;2.032;2022-08-03T02:11:27;20.10;99.50
12752;DHT22;6440;44.616;2.032;2022-08-03T02:13:54;20.10;99.40
12752;DHT22;6440;44.616;2.032;2022-08-03T02:16:23;20.20;99.40
12752;DHT22;6440;44.616;2.032;2022-08-03T02:18:51;20.10;99.40
12752;DHT22;6440;44.616;2.032;2022-08-03T02:21:19;20.10;99.40
12752;DHT22;6440;44.616;2.032;2022-08-03T02:23:47;20.10;99.60
12752;DHT22;6440;44.616;2.032;2022-08-03T02:26:16;20.10;99.50
12752;DHT22;6440;44.616;2.032;2022-08-03T02:28:44;20.10;99.40
12752;DHT22;6440;44.616;2.032;2022-08-03T02:31:14;20.00;99.30
12752;DHT22;6440;44.616;2.032;2022-08-03T02:33:42;20.00;99.30
12752;DHT22;6440;44.616;2.032;2022-08-03T02:36:10;20.00;99.40
12752;DHT22;6440;44.616;2.032;2022-08-03T02:38:37;20.00;99.30
12752;DHT22;6440;44.616;2.032;2022-08-03T02:41:07;19.90;99.40
12752;DHT22;6440;44.616;2.032;2022-08-03T02:43:34;19.90;99.60
12752;DHT22;6440;44.616;2.032;2022-08-03T02:46:02;19.90;99.60
12752;DHT22;6440;44.616;2.032;2022-08-03T02:48:30;19.90;99.60
12752;DHT22;6440;44.616;2.032;2022-08-03T02:50:59;19.90;99.50
12752;DHT22;6440;44.616;2.032;2022-08-03T02:53:27;19.80;99.60
12752;DHT22;6440;44.616;2.032;2022-08-03T02:55:55;19.80;99.50
12752;DHT22;6440;44.616;2.032;2022-08-03T02:58:23;19.80;99.60
12752;DHT22;6440;44.616;2.032;2022-08-03T03:00:51;19.80;99.50
12752;DHT22;6440;44.616;2.032;2022-08-03T03:03:19;19.80;99.60
12752;DHT22;6440;44.616;2.032;2022-08-03T03:05:47;19.80;99.40
12752;DHT22;6440;44.616;2.032;2022-08-03T03:08:16;19.70;99.30
12752;DHT22;6440;44.616;2.032;2022-08-03T03:10:43;19.70;99.20
12752;DHT22;6440;44.616;2.032;2022-08-03T03:13:12;19.70;99.30
12752;DHT22;6440;44.616;2.032;2022-08-03T03:15:39;19.70;99.20
12752;DHT22;6440;44.616;2.032;2022-08-03T03:18:07;19.60;99.40
12752;DHT22;6440;44.616;2.032;2022-08-03T03:20:35;19.60;99.50
12752;DHT22;6440;44.616;2.032;2022-08-03T03:23:03;19.60;99.30
12752;DHT22;6440;44.616;2.032;2022-08-03T03:25:31;19.60;99.30
12752;DHT22;6440;44.616;2.032;2022-08-03T03:27:59;19.60;99.60
12752;DHT22;6440;44.616;2.032;2022-08-03T03:30:27;19.60;99.50
12752;DHT22;6440;44.616;2.032;2022-08-03T03:32:56;19.60;99.50
12752;DHT22;6440;44.616;2.032;2022-08-03T03:35:24;19.60;99.60
12752;DHT22;6440;44.616;2.032;2022-08-03T03:37:52;19.50;99.80
12752;DHT22;6440;44.616;2.032;2022-08-03T03:40:20;19.50;99.80
12752;DHT22;6440;44.616;2.032;2022-08-03T03:42:49;19.50;99.90
12752;DHT22;6440;44.616;2.032;2022-08-03T03:45:17;19.50;99.90
12752;DHT22;6440;44.616;2.032;2022-08-03T03:47:45;19.50;99.90
12752;DHT22;6440;44.616;2.032;2022-08-03T03:50:13;19.40;99.90
12752;DHT22;6440;44.616;2.032;2022-08-03T03:52:42;19.40;99.90
12752;DHT22;6440;44.616;2.032;2022-08-03T03:55:14;19.40;99.90
12752;DHT22;6440;44.616;2.032;2022-08-03T03:57:39;19.40;99.90
12752;DHT22;6440;44.616;2.032;2022-08-03T04:00:09;19.30;99.90
12752;DHT22;6440;44.616;2.032;2022-08-03T04:02:38;19.30;99.90
12752;DHT22;6440;44.616;2.032;2022-08-03T04:05:07;19.30;99.90
12752;DHT22;6440;44.616;2.032;2022-08-03T04:07:49;19.30;99.90
12752;DHT22;6440;44.616;2.032;2022-08-03T04:10:20;19.20;99.90
12752;DHT22;6440;44.616;2.032;2022-08-03T04:12:52;19.20;99.90
12752;DHT22;6440;44.616;2.032;2022-08-03T04:15:21;19.20;99.90
12752;DHT22;6440;44.616;2.032;2022-08-03T04:17:48;19.20;99.90
12752;DHT22;6440;44.616;2.032;2022-08-03T04:20:17;19.10;99.90
12752;DHT22;6440;44.616;2.032;2022-08-03T04:22:45;19.10;99.90
12752;DHT22;6440;44.616;2.032;2022-08-03T04:25:13;19.00;99.90
12752;DHT22;6440;44.616;2.032;2022-08-03T04:27:41;19.00;99.90
12752;DHT22;6440;44.616;2.032;2022-08-03T04:30:09;19.00;99.90
12752;DHT22;6440;44.616;2.032;2022-08-03T04:32:38;19.00;99.90
12752;DHT22;6440;44.616;2.032;2022-08-03T04:35:07;18.90;99.90
12752;DHT22;6440;44.616;2.032;2022-08-03T04:37:38;18.90;99.90
12752;DHT22;6440;44.616;2.032;2022-08-03T04:40:09;18.90;99.90
12752;DHT22;6440;44.616;2.032;2022-08-03T04:42:37;18.80;99.90
12752;DHT22;6440;44.616;2.032;2022-08-03T04:45:06;18.80;99.90
12752;DHT22;6440;44.616;2.032;2022-08-03T04:47:35;18.80;99.90
12752;DHT22;6440;44.616;2.032;2022-08-03T04:50:03;18.80;99.90
12752;DHT22;6440;44.616;2.032;2022-08-03T04:52:32;18.80;99.90
12752;DHT22;6440;44.616;2.032;2022-08-03T04:55:00;18.80;99.90
12752;DHT22;6440;44.616;2.032;2022-08-03T04:57:28;18.80;99.90
12752;DHT22;6440;44.616;2.032;2022-08-03T04:59:57;18.80;99.90
12752;DHT22;6440;44.616;2.032;2022-08-03T05:02:25;18.80;99.90
12752;DHT22;6440;44.616;2.032;2022-08-03T05:04:54;18.80;99.90
12752;DHT22;6440;44.616;2.032;2022-08-03T05:07:23;18.80;99.90
12752;DHT22;6440;44.616;2.032;2022-08-03T05:09:52;18.80;99.90
12752;DHT22;6440;44.616;2.032;2022-08-03T05:12:21;18.80;99.90
12752;DHT22;6440;44.616;2.032;2022-08-03T05:14:50;18.80;99.90
12752;DHT22;6440;44.616;2.032;2022-08-03T05:17:19;18.80;99.90
12752;DHT22;6440;44.616;2.032;2022-08-03T05:19:48;18.90;99.90
12752;DHT22;6440;44.616;2.032;2022-08-03T05:22:17;18.90;99.90
12752;DHT22;6440;44.616;2.032;2022-08-03T05:24:46;18.90;99.90
12752;DHT22;6440;44.616;2.032;2022-08-03T05:27:15;18.90;99.90
12752;DHT22;6440;44.616;2.032;2022-08-03T05:29:44;19.00;99.90
12752;DHT22;6440;44.616;2.032;2022-08-03T05:32:13;19.00;99.90
12752;DHT22;6440;44.616;2.032;2022-08-03T05:34:41;19.00;99.90
12752;DHT22;6440;44.616;2.032;2022-08-03T05:37:09;19.00;99.90
12752;DHT22;6440;44.616;2.032;2022-08-03T05:39:38;19.10;99.90
12752;DHT22;6440;44.616;2.032;2022-08-03T05:42:07;19.10;99.90
12752;DHT22;6440;44.616;2.032;2022-08-03T05:44:35;19.10;99.90
12752;DHT22;6440;44.616;2.032;2022-08-03T05:47:04;19.10;99.90
12752;DHT22;6440;44.616;2.032;2022-08-03T05:49:33;19.20;99.90
12752;DHT22;6440;44.616;2.032;2022-08-03T05:52:03;19.20;99.90
12752;DHT22;6440;44.616;2.032;2022-08-03T05:54:32;19.20;99.90
12752;DHT22;6440;44.616;2.032;2022-08-03T05:57:00;19.10;99.90
12752;DHT22;6440;44.616;2.032;2022-08-03T05:59:29;19.10;99.90
12752;DHT22;6440;44.616;2.032;2022-08-03T06:01:58;19.10;99.90
12752;DHT22;6440;44.616;2.032;2022-08-03T06:04:27;19.20;99.90
12752;DHT22;6440;44.616;2.032;2022-08-03T06:06:57;19.20;99.90
12752;DHT22;6440;44.616;2.032;2022-08-03T06:09:26;19.30;99.90
12752;DHT22;6440;44.616;2.032;2022-08-03T06:11:54;19.40;99.80
12752;DHT22;6440;44.616;2.032;2022-08-03T06:14:23;19.50;99.50
12752;DHT22;6440;44.616;2.032;2022-08-03T06:16:52;19.50;99.50
12752;DHT22;6440;44.616;2.032;2022-08-03T06:19:21;19.60;99.90
12752;DHT22;6440;44.616;2.032;2022-08-03T06:21:50;19.70;99.50
12752;DHT22;6440;44.616;2.032;2022-08-03T06:24:19;19.80;99.20
12752;DHT22;6440;44.616;2.032;2022-08-03T06:26:48;19.90;99.00
12752;DHT22;6440;44.616;2.032;2022-08-03T06:29:17;20.00;98.70
12752;DHT22;6440;44.616;2.032;2022-08-03T06:31:46;20.10;97.70
12752;DHT22;6440;44.616;2.032;2022-08-03T06:34:15;20.30;97.80
12752;DHT22;6440;44.616;2.032;2022-08-03T06:36:44;20.50;96.40
12752;DHT22;6440;44.616;2.032;2022-08-03T06:39:13;20.60;96.50
12752;DHT22;6440;44.616;2.032;2022-08-03T06:41:42;20.70;96.90
12752;DHT22;6440;44.616;2.032;2022-08-03T06:44:11;20.90;96.50
12752;DHT22;6440;44.616;2.032;2022-08-03T06:46:38;21.00;95.50
12752;DHT22;6440;44.616;2.032;2022-08-03T06:49:07;21.20;95.60
12752;DHT22;6440;44.616;2.032;2022-08-03T06:51:36;21.40;94.90
12752;DHT22;6440;44.616;2.032;2022-08-03T06:54:05;21.60;95.30
12752;DHT22;6440;44.616;2.032;2022-08-03T06:56:34;21.90;94.30
12752;DHT22;6440;44.616;2.032;2022-08-03T06:59:03;22.30;93.20
12752;DHT22;6440;44.616;2.032;2022-08-03T07:01:31;22.80;87.00
12752;DHT22;6440;44.616;2.032;2022-08-03T07:04:00;23.20;88.80
12752;DHT22;6440;44.616;2.032;2022-08-03T07:06:29;23.40;83.60
12752;DHT22;6440;44.616;2.032;2022-08-03T07:08:57;23.60;83.00
12752;DHT22;6440;44.616;2.032;2022-08-03T07:11:26;23.90;81.50
12752;DHT22;6440;44.616;2.032;2022-08-03T07:13:55;24.20;82.00
12752;DHT22;6440;44.616;2.032;2022-08-03T07:16:23;24.60;81.90
12752;DHT22;6440;44.616;2.032;2022-08-03T07:18:52;24.90;79.90
12752;DHT22;6440;44.616;2.032;2022-08-03T07:21:21;25.10;77.80
12752;DHT22;6440;44.616;2.032;2022-08-03T07:23:49;25.30;77.60
12752;DHT22;6440;44.616;2.032;2022-08-03T07:26:18;25.40;76.80
12752;DHT22;6440;44.616;2.032;2022-08-03T07:28:47;25.60;77.60
12752;DHT22;6440;44.616;2.032;2022-08-03T07:31:16;25.80;76.50
12752;DHT22;6440;44.616;2.032;2022-08-03T07:33:45;26.10;75.60
12752;DHT22;6440;44.616;2.032;2022-08-03T07:36:13;26.60;74.30
12752;DHT22;6440;44.616;2.032;2022-08-03T07:38:42;27.40;72.90
12752;DHT22;6440;44.616;2.032;2022-08-03T07:41:11;28.60;70.80
12752;DHT22;6440;44.616;2.032;2022-08-03T07:43:40;30.00;67.60
12752;DHT22;6440;44.616;2.032;2022-08-03T07:46:08;31.20;65.20
12752;DHT22;6440;44.616;2.032;2022-08-03T07:48:37;32.10;62.90
12752;DHT22;6440;44.616;2.032;2022-08-03T07:51:06;32.90;61.60
12752;DHT22;6440;44.616;2.032;2022-08-03T07:53:35;34.30;59.70
12752;DHT22;6440;44.616;2.032;2022-08-03T07:56:04;35.30;57.70
12752;DHT22;6440;44.616;2.032;2022-08-03T07:58:34;36.00;56.50
12752;DHT22;6440;44.616;2.032;2022-08-03T08:01:01;37.00;54.30
12752;DHT22;6440;44.616;2.032;2022-08-03T08:03:29;37.70;53.30
12752;DHT22;6440;44.616;2.032;2022-08-03T08:05:58;38.50;52.50
12752;DHT22;6440;44.616;2.032;2022-08-03T08:08:27;38.50;51.50
12752;DHT22;6440;44.616;2.032;2022-08-03T08:10:55;39.00;50.90
12752;DHT22;6440;44.616;2.032;2022-08-03T08:13:24;39.10;50.50
12752;DHT22;6440;44.616;2.032;2022-08-03T08:15:53;39.40;50.00
12752;DHT22;6440;44.616;2.032;2022-08-03T08:18:21;39.40;49.90
12752;DHT22;6440;44.616;2.032;2022-08-03T08:20:49;39.70;49.40
12752;DHT22;6440;44.616;2.032;2022-08-03T08:23:17;40.10;48.90
12752;DHT22;6440;44.616;2.032;2022-08-03T08:25:50;40.30;48.70
12752;DHT22;6440;44.616;2.032;2022-08-03T08:28:18;40.80;47.80
12752;DHT22;6440;44.616;2.032;2022-08-03T08:30:46;41.10;46.70
12752;DHT22;6440;44.616;2.032;2022-08-03T08:33:13;40.60;47.30
12752;DHT22;6440;44.616;2.032;2022-08-03T08:35:42;41.00;47.10
12752;DHT22;6440;44.616;2.032;2022-08-03T08:38:11;41.70;46.50
12752;DHT22;6440;44.616;2.032;2022-08-03T08:40:39;42.20;46.60
12752;DHT22;6440;44.616;2.032;2022-08-03T08:43:08;42.40;45.50
12752;DHT22;6440;44.616;2.032;2022-08-03T08:45:37;42.30;45.20
12752;DHT22;6440;44.616;2.032;2022-08-03T08:48:05;42.30;45.50
12752;DHT22;6440;44.616;2.032;2022-08-03T08:50:33;42.60;45.60
12752;DHT22;6440;44.616;2.032;2022-08-03T08:53:01;42.90;44.90
12752;DHT22;6440;44.616;2.032;2022-08-03T08:55:29;42.80;44.90
12752;DHT22;6440;44.616;2.032;2022-08-03T08:57:59;42.90;45.20
12752;DHT22;6440;44.616;2.032;2022-08-03T09:00:25;43.10;45.10
12752;DHT22;6440;44.616;2.032;2022-08-03T09:02:54;43.30;44.40
12752;DHT22;6440;44.616;2.032;2022-08-03T09:05:22;43.60;44.60
12752;DHT22;6440;44.616;2.032;2022-08-03T09:07:51;43.50;44.20
12752;DHT22;6440;44.616;2.032;2022-08-03T09:10:19;43.80;44.40
12752;DHT22;6440;44.616;2.032;2022-08-03T09:12:48;43.90;44.00
12752;DHT22;6440;44.616;2.032;2022-08-03T09:15:26;44.10;43.60
12752;DHT22;6440;44.616;2.032;2022-08-03T09:17:55;44.20;43.70
12752;DHT22;6440;44.616;2.032;2022-08-03T09:20:23;44.30;43.30
12752;DHT22;6440;44.616;2.032;2022-08-03T09:22:55;44.30;43.40
12752;DHT22;6440;44.616;2.032;2022-08-03T09:25:26;44.00;43.60
12752;DHT22;6440;44.616;2.032;2022-08-03T09:28:12;44.00;44.00
12752;DHT22;6440;44.616;2.032;2022-08-03T09:30:41;43.90;43.80
12752;DHT22;6440;44.616;2.032;2022-08-03T09:33:09;44.00;43.50
12752;DHT22;6440;44.616;2.032;2022-08-03T09:35:42;43.80;43.30
12752;DHT22;6440;44.616;2.032;2022-08-03T09:38:12;43.50;43.60
12752;DHT22;6440;44.616;2.032;2022-08-03T09:40:40;43.40;43.80
12752;DHT22;6440;44.616;2.032;2022-08-03T09:43:07;43.30;44.30
12752;DHT22;6440;44.616;2.032;2022-08-03T09:45:35;43.60;43.80
12752;DHT22;6440;44.616;2.032;2022-08-03T09:50:50;44.00;43.80
12752;DHT22;6440;44.616;2.032;2022-08-03T09:53:18;44.20;44.00
12752;DHT22;6440;44.616;2.032;2022-08-03T09:55:52;44.20;43.70
12752;DHT22;6440;44.616;2.032;2022-08-03T09:58:24;44.40;43.20
12752;DHT22;6440;44.616;2.032;2022-08-03T10:00:56;44.50;43.00
12752;DHT22;6440;44.616;2.032;2022-08-03T10:03:24;44.50;43.20
12752;DHT22;6440;44.616;2.032;2022-08-03T10:05:51;44.50;43.20
12752;DHT22;6440;44.616;2.032;2022-08-03T10:08:19;44.60;43.20
12752;DHT22;6440;44.616;2.032;2022-08-03T10:10:48;44.60;42.90
12752;DHT22;6440;44.616;2.032;2022-08-03T10:13:16;44.20;43.30
12752;DHT22;6440;44.616;2.032;2022-08-03T10:15:44;44.10;43.80
12752;DHT22;6440;44.616;2.032;2022-08-03T10:18:11;44.20;43.70
12752;DHT22;6440;44.616;2.032;2022-08-03T10:20:44;44.20;43.50
12752;DHT22;6440;44.616;2.032;2022-08-03T10:23:11;44.30;43.50
12752;DHT22;6440;44.616;2.032;2022-08-03T10:25:39;44.00;43.30
12752;DHT22;6440;44.616;2.032;2022-08-03T10:28:07;43.60;43.70
12752;DHT22;6440;44.616;2.032;2022-08-03T10:30:34;43.30;44.30
12752;DHT22;6440;44.616;2.032;2022-08-03T10:33:06;42.90;44.60
12752;DHT22;6440;44.616;2.032;2022-08-03T10:35:32;42.40;45.20
12752;DHT22;6440;44.616;2.032;2022-08-03T10:38:02;42.60;45.20
12752;DHT22;6440;44.616;2.032;2022-08-03T10:40:30;43.00;44.80
12752;DHT22;6440;44.616;2.032;2022-08-03T10:43:02;42.70;44.80
12752;DHT22;6440;44.616;2.032;2022-08-03T10:45:29;42.30;45.00
12752;DHT22;6440;44.616;2.032;2022-08-03T10:47:57;42.40;45.50
12752;DHT22;6440;44.616;2.032;2022-08-03T10:50:25;42.50;45.40
12752;DHT22;6440;44.616;2.032;2022-08-03T10:52:58;42.80;44.90
12752;DHT22;6440;44.616;2.032;2022-08-03T10:55:45;42.70;44.80
12752;DHT22;6440;44.616;2.032;2022-08-03T10:58:59;42.40;44.60
12752;DHT22;6440;44.616;2.032;2022-08-03T11:01:13;42.40;45.00
12752;DHT22;6440;44.616;2.032;2022-08-03T11:06:41;42.50;45.20
12752;DHT22;6440;44.616;2.032;2022-08-03T11:09:17;42.50;44.50
12752;DHT22;6440;44.616;2.032;2022-08-03T11:11:46;41.80;44.80
12752;DHT22;6440;44.616;2.032;2022-08-03T11:14:17;41.40;45.70
12752;DHT22;6440;44.616;2.032;2022-08-03T11:16:44;41.70;44.80
12752;DHT22;6440;44.616;2.032;2022-08-03T11:19:13;42.00;45.00
12752;DHT22;6440;44.616;2.032;2022-08-03T11:21:54;42.30;44.60
12752;DHT22;6440;44.616;2.032;2022-08-03T11:27:18;42.50;43.90
12752;DHT22;6440;44.616;2.032;2022-08-03T11:29:53;41.80;43.50
12752;DHT22;6440;44.616;2.032;2022-08-03T11:32:53;41.40;44.20
12752;DHT22;6440;44.616;2.032;2022-08-03T11:35:22;40.60;44.30
12752;DHT22;6440;44.616;2.032;2022-08-03T11:38:03;40.10;44.60
12752;DHT22;6440;44.616;2.032;2022-08-03T11:40:34;40.00;45.10
12752;DHT22;6440;44.616;2.032;2022-08-03T11:43:02;40.30;45.10
12752;DHT22;6440;44.616;2.032;2022-08-03T11:45:30;39.90;46.20
12752;DHT22;6440;44.616;2.032;2022-08-03T11:47:59;40.00;45.60
12752;DHT22;6440;44.616;2.032;2022-08-03T11:50:26;40.10;45.00
12752;DHT22;6440;44.616;2.032;2022-08-03T11:52:54;40.30;44.20
12752;DHT22;6440;44.616;2.032;2022-08-03T11:55:22;40.60;44.50
12752;DHT22;6440;44.616;2.032;2022-08-03T11:57:50;40.70;44.20
12752;DHT22;6440;44.616;2.032;2022-08-03T12:00:22;40.90;43.80
12752;DHT22;6440;44.616;2.032;2022-08-03T12:03:03;40.80;44.20
12752;DHT22;6440;44.616;2.032;2022-08-03T12:05:37;40.20;45.10
12752;DHT22;6440;44.616;2.032;2022-08-03T12:08:07;40.00;45.40
12752;DHT22;6440;44.616;2.032;2022-08-03T12:10:35;40.10;45.10
12752;DHT22;6440;44.616;2.032;2022-08-03T12:13:03;40.10;45.10
12752;DHT22;6440;44.616;2.032;2022-08-03T12:15:33;40.10;45.40
12752;DHT22;6440;44.616;2.032;2022-08-03T12:18:02;39.90;45.60
12752;DHT22;6440;44.616;2.032;2022-08-03T12:20:30;39.80;45.60
12752;DHT22;6440;44.616;2.032;2022-08-03T12:23:03;39.70;45.60
12752;DHT22;6440;44.616;2.032;2022-08-03T12:25:31;39.80;46.20
12752;DHT22;6440;44.616;2.032;2022-08-03T12:28:06;39.80;45.30
12752;DHT22;6440;44.616;2.032;2022-08-03T12:30:32;39.70;45.50
12752;DHT22;6440;44.616;2.032;2022-08-03T12:33:16;39.70;45.50
12752;DHT22;6440;44.616;2.032;2022-08-03T12:36:03;39.40;45.60
12752;DHT22;6440;44.616;2.032;2022-08-03T12:38:34;39.00;46.80
12752;DHT22;6440;44.616;2.032;2022-08-03T12:41:00;39.20;47.10
12752;DHT22;6440;44.616;2.032;2022-08-03T12:43:27;39.40;46.40
12752;DHT22;6440;44.616;2.032;2022-08-03T12:46:06;39.40;46.30
12752;DHT22;6440;44.616;2.032;2022-08-03T12:48:34;39.30;46.70
12752;DHT22;6440;44.616;2.032;2022-08-03T12:51:08;38.90;45.80
12752;DHT22;6440;44.616;2.032;2022-08-03T12:53:35;38.90;46.50
12752;DHT22;6440;44.616;2.032;2022-08-03T12:56:03;38.50;46.40
12752;DHT22;6440;44.616;2.032;2022-08-03T12:58:31;38.20;47.00
12752;DHT22;6440;44.616;2.032;2022-08-03T13:00:59;38.10;47.10
12752;DHT22;6440;44.616;2.032;2022-08-03T13:03:27;38.20;47.40
12752;DHT22;6440;44.616;2.032;2022-08-03T13:05:56;38.40;47.40
12752;DHT22;6440;44.616;2.032;2022-08-03T13:08:24;38.60;47.10
12752;DHT22;6440;44.616;2.032;2022-08-03T13:10:53;38.70;46.30
12752;DHT22;6440;44.616;2.032;2022-08-03T13:13:37;38.80;47.20
12752;DHT22;6440;44.616;2.032;2022-08-03T13:16:05;38.90;46.30
12752;DHT22;6440;44.616;2.032;2022-08-03T13:18:33;38.90;45.90
12752;DHT22;6440;44.616;2.032;2022-08-03T13:21:02;38.80;45.70
12752;DHT22;6440;44.616;2.032;2022-08-03T13:23:30;38.70;45.60
12752;DHT22;6440;44.616;2.032;2022-08-03T13:25:58;38.50;46.00
12752;DHT22;6440;44.616;2.032;2022-08-03T13:28:27;38.30;46.40
12752;DHT22;6440;44.616;2.032;2022-08-03T13:30:56;38.40;47.30
12752;DHT22;6440;44.616;2.032;2022-08-03T13:33:25;38.60;47.20
12752;DHT22;6440;44.616;2.032;2022-08-03T13:35:52;38.80;46.60
12752;DHT22;6440;44.616;2.032;2022-08-03T13:38:20;38.90;46.70
12752;DHT22;6440;44.616;2.032;2022-08-03T13:40:50;38.90;46.20
12752;DHT22;6440;44.616;2.032;2022-08-03T13:43:18;38.90;45.20
12752;DHT22;6440;44.616;2.032;2022-08-03T13:45:45;38.70;46.20
12752;DHT22;6440;44.616;2.032;2022-08-03T13:48:14;38.80;45.40
12752;DHT22;6440;44.616;2.032;2022-08-03T13:50:43;38.90;45.50
12752;DHT22;6440;44.616;2.032;2022-08-03T13:53:12;38.80;45.20
12752;DHT22;6440;44.616;2.032;2022-08-03T13:55:40;38.70;45.40
12752;DHT22;6440;44.616;2.032;2022-08-03T13:58:09;38.60;45.80
12752;DHT22;6440;44.616;2.032;2022-08-03T14:00:38;38.60;45.30
12752;DHT22;6440;44.616;2.032;2022-08-03T14:03:06;38.50;45.70
12752;DHT22;6440;44.616;2.032;2022-08-03T14:05:34;38.50;46.10
12752;DHT22;6440;44.616;2.032;2022-08-03T14:08:02;38.50;44.20
12752;DHT22;6440;44.616;2.032;2022-08-03T14:10:32;38.40;44.50
12752;DHT22;6440;44.616;2.032;2022-08-03T14:12:59;38.40;44.60
12752;DHT22;6440;44.616;2.032;2022-08-03T14:15:28;38.30;44.60
12752;DHT22;6440;44.616;2.032;2022-08-03T14:17:56;38.30;45.10
12752;DHT22;6440;44.616;2.032;2022-08-03T14:20:26;38.40;44.60
12752;DHT22;6440;44.616;2.032;2022-08-03T14:22:53;38.40;44.50
12752;DHT22;6440;44.616;2.032;2022-08-03T14:25:22;38.40;44.50
12752;DHT22;6440;44.616;2.032;2022-08-03T14:27:51;38.40;44.80
12752;DHT22;6440;44.616;2.032;2022-08-03T14:30:20;38.30;44.60
12752;DHT22;6440;44.616;2.032;2022-08-03T14:32:48;38.20;45.10
12752;DHT22;6440;44.616;2.032;2022-08-03T14:35:17;38.20;45.50
12752;DHT22;6440;44.616;2.032;2022-08-03T14:37:46;38.20;44.50
12752;DHT22;6440;44.616;2.032;2022-08-03T14:40:14;38.10;45.00
12752;DHT22;6440;44.616;2.032;2022-08-03T14:42:43;38.00;45.80
12752;DHT22;6440;44.616;2.032;2022-08-03T14:45:11;38.00;45.50
12752;DHT22;6440;44.616;2.032;2022-08-03T14:47:40;38.00;45.00
12752;DHT22;6440;44.616;2.032;2022-08-03T14:50:09;37.90;45.40
12752;DHT22;6440;44.616;2.032;2022-08-03T14:52:37;37.90;45.80
12752;DHT22;6440;44.616;2.032;2022-08-03T14:55:06;38.00;45.10
12752;DHT22;6440;44.616;2.032;2022-08-03T14:57:36;37.90;45.40
12752;DHT22;6440;44.616;2.032;2022-08-03T15:00:05;37.90;45.40
12752;DHT22;6440;44.616;2.032;2022-08-03T15:02:35;37.90;45.30
12752;DHT22;6440;44.616;2.032;2022-08-03T15:05:04;37.80;45.40
12752;DHT22;6440;44.616;2.032;2022-08-03T15:07:34;37.70;45.60
12752;DHT22;6440;44.616;2.032;2022-08-03T15:10:03;37.70;45.60
12752;DHT22;6440;44.616;2.032;2022-08-03T15:12:31;37.70;45.70
12752;DHT22;6440;44.616;2.032;2022-08-03T15:15:00;37.70;45.50
12752;DHT22;6440;44.616;2.032;2022-08-03T15:17:28;37.70;45.20
12752;DHT22;6440;44.616;2.032;2022-08-03T15:19:57;37.70;45.20
12752;DHT22;6440;44.616;2.032;2022-08-03T15:22:26;37.60;45.10
12752;DHT22;6440;44.616;2.032;2022-08-03T15:24:55;37.60;45.40
12752;DHT22;6440;44.616;2.032;2022-08-03T15:27:23;37.60;45.50
12752;DHT22;6440;44.616;2.032;2022-08-03T15:29:52;37.50;45.20
12752;DHT22;6440;44.616;2.032;2022-08-03T15:32:21;37.50;45.00
12752;DHT22;6440;44.616;2.032;2022-08-03T15:34:50;37.40;46.10
12752;DHT22;6440;44.616;2.032;2022-08-03T15:37:18;37.40;45.40
12752;DHT22;6440;44.616;2.032;2022-08-03T15:39:46;37.40;45.20
12752;DHT22;6440;44.616;2.032;2022-08-03T15:42:15;37.40;45.20
12752;DHT22;6440;44.616;2.032;2022-08-03T15:44:44;37.40;45.90
12752;DHT22;6440;44.616;2.032;2022-08-03T15:47:12;37.40;45.20
12752;DHT22;6440;44.616;2.032;2022-08-03T15:49:41;37.40;45.00
12752;DHT22;6440;44.616;2.032;2022-08-03T15:52:09;37.30;44.70
12752;DHT22;6440;44.616;2.032;2022-08-03T15:54:38;37.10;45.10
12752;DHT22;6440;44.616;2.032;2022-08-03T15:57:07;37.00;45.00
12752;DHT22;6440;44.616;2.032;2022-08-03T15:59:36;37.00;45.50
12752;DHT22;6440;44.616;2.032;2022-08-03T16:02:04;37.10;45.30
12752;DHT22;6440;44.616;2.032;2022-08-03T16:04:33;37.10;45.20
12752;DHT22;6440;44.616;2.032;2022-08-03T16:07:02;37.10;45.30
12752;DHT22;6440;44.616;2.032;2022-08-03T16:09:31;37.20;45.60